Time;durP1;ratioP1;P1;durP2;ratioP2;P2;SDS_P1;SDS_P2;PMS_P1;PMS_P2;Temp;Humidity;BMP_temperature;BMP_pressure;BME280_temperature;BME280_humidity;BME280_pressure;Samples;Min_cycle;Max_cycle;Signal;HPM_P1;HPM_P2
2023/08/22 00:00:26;;;;;;;7.00;3.47;;;20.50;67.00;;;;;;5009493;28;20260;-73
2023/08/22 00:02:53;;;;;;;8.60;3.50;;;20.50;67.00;;;;;;5008029;28;20254;-73
2023/08/22 00:05:21;;;;;;;6.53;3.40;;;20.50;67.10;;;;;;5010040;28;20050;-73
2023/08/22 00:07:48;;;;;;;8.35;4.10;;;20.50;67.30;;;;;;5002294;28;20104;-72
2023/08/22 00:10:17;;;;;;;7.97;3.78;;;20.40;67.30;;;;;;5007850;28;20061;-73
2023/08/22 00:12:47;;;;;;;8.83;3.80;;;20.40;67.50;;;;;;4988143;28;20133;-72
2023/08/22 00:15:14;;;;;;;6.03;3.15;;;20.30;67.60;;;;;;5007992;28;20285;-72
2023/08/22 00:17:42;;;;;;;6.75;3.20;;;20.30;67.70;;;;;;4999708;28;20134;-73
2023/08/22 00:20:12;;;;;;;7.88;3.50;;;20.30;67.80;;;;;;5007684;28;20057;-73
2023/08/22 00:22:39;;;;;;;5.65;3.50;;;20.20;68.00;;;;;;5008300;28;20164;-73
2023/08/22 00:25:07;;;;;;;6.23;3.00;;;20.10;68.00;;;;;;5007551;28;20062;-73
2023/08/22 00:27:36;;;;;;;5.93;3.05;;;20.10;68.10;;;;;;5007383;28;20824;-72
2023/08/22 00:30:04;;;;;;;6.75;3.20;;;20.10;68.00;;;;;;5007282;28;20137;-73
2023/08/22 00:32:31;;;;;;;6.72;3.22;;;20.10;67.60;;;;;;4990964;28;20516;-73
2023/08/22 00:34:58;;;;;;;6.65;3.03;;;20.00;67.90;;;;;;4990715;28;20051;-73
2023/08/22 00:37:25;;;;;;;6.93;3.30;;;20.00;68.10;;;;;;5007820;28;20051;-73
2023/08/22 00:39:52;;;;;;;5.20;2.90;;;20.00;68.20;;;;;;5007069;28;20290;-73
2023/08/22 00:42:19;;;;;;;8.30;3.40;;;19.90;68.30;;;;;;5007840;28;20655;-73
2023/08/22 00:44:48;;;;;;;5.60;3.00;;;19.80;68.30;;;;;;5007580;28;20085;-73
2023/08/22 00:47:16;;;;;;;8.07;2.90;;;19.70;68.40;;;;;;5007007;28;20059;-73
2023/08/22 00:49:43;;;;;;;4.63;2.63;;;19.70;68.40;;;;;;4990959;28;20532;-73
2023/08/22 00:52:11;;;;;;;6.55;2.88;;;19.70;68.50;;;;;;5006584;28;20254;-73
2023/08/22 00:54:38;;;;;;;6.70;2.80;;;19.70;68.60;;;;;;4990548;28;20054;-73
2023/08/22 00:57:05;;;;;;;4.93;2.92;;;19.70;68.60;;;;;;5007036;28;20129;-73
2023/08/22 00:59:33;;;;;;;5.28;2.95;;;19.70;68.70;;;;;;4990263;28;20568;-73
2023/08/22 01:02:01;;;;;;;4.73;2.70;;;19.70;68.90;;;;;;5006888;28;20058;-73
2023/08/22 01:04:28;;;;;;;5.90;2.78;;;19.60;69.00;;;;;;5007256;28;20298;-73
2023/08/22 01:07:00;;;;;;;6.30;2.70;;;19.60;69.00;;;;;;5006686;28;20050;-73
2023/08/22 01:09:32;;;;;;;6.50;2.85;;;19.60;69.20;;;;;;5008608;28;20169;-73
2023/08/22 01:12:04;;;;;;;5.18;2.80;;;19.50;69.30;;;;;;4990237;28;20048;-73
2023/08/22 01:14:36;;;;;;;6.00;2.70;;;19.50;69.40;;;;;;4991143;28;20504;-73
2023/08/22 01:17:06;;;;;;;6.47;3.05;;;19.50;69.40;;;;;;4990592;28;20461;-73
2023/08/22 01:19:33;;;;;;;5.78;3.05;;;19.50;69.40;;;;;;5006748;28;20054;-73
2023/08/22 01:22:02;;;;;;;5.43;2.92;;;19.50;69.40;;;;;;5008105;28;20050;-73
2023/08/22 01:24:29;;;;;;;4.60;2.63;;;19.50;69.50;;;;;;4990723;28;20050;-73
2023/08/22 01:26:56;;;;;;;5.23;2.80;;;19.50;69.50;;;;;;4989943;28;20082;-73
2023/08/22 01:29:32;;;;;;;6.00;3.20;;;19.50;69.50;;;;;;4990071;28;20341;-73
2023/08/22 01:32:06;;;;;;;6.28;3.00;;;19.40;69.50;;;;;;5006390;28;20057;-73
2023/08/22 01:34:37;;;;;;;5.15;2.53;;;19.40;69.50;;;;;;5006273;28;20058;-73
2023/08/22 01:37:08;;;;;;;7.38;3.22;;;19.40;69.50;;;;;;5006867;28;20527;-73
2023/08/22 01:39:38;;;;;;;7.07;3.20;;;19.30;69.60;;;;;;5006535;28;20081;-73
2023/08/22 01:42:07;;;;;;;7.22;3.45;;;19.30;69.70;;;;;;4989772;28;20658;-73
2023/08/22 01:44:37;;;;;;;5.72;3.20;;;19.30;69.60;;;;;;5008380;28;20065;-73
2023/08/22 01:47:04;;;;;;;5.45;3.00;;;19.30;69.70;;;;;;4990139;28;20161;-73
2023/08/22 01:49:35;;;;;;;7.47;3.20;;;19.30;69.60;;;;;;5006452;28;20070;-73
2023/08/22 01:52:02;;;;;;;7.20;2.83;;;19.30;69.70;;;;;;4988620;28;20046;-73
2023/08/22 01:54:31;;;;;;;7.35;3.33;;;19.30;69.70;;;;;;4990480;28;20716;-73
2023/08/22 01:56:58;;;;;;;6.75;2.70;;;19.30;69.80;;;;;;4989477;28;20065;-73
2023/08/22 01:59:24;;;;;;;4.78;3.00;;;19.20;69.80;;;;;;4989887;28;20050;-73
2023/08/22 02:01:51;;;;;;;5.68;3.22;;;19.20;69.90;;;;;;4989930;28;20062;-73
2023/08/22 02:04:18;;;;;;;5.43;3.07;;;19.20;70.00;;;;;;4989577;28;20125;-73
2023/08/22 02:06:46;;;;;;;6.43;2.95;;;19.20;69.90;;;;;;5007720;28;20337;-73
2023/08/22 02:09:13;;;;;;;5.55;3.00;;;19.10;69.90;;;;;;4989419;28;20222;-73
2023/08/22 02:11:42;;;;;;;6.05;2.80;;;19.10;70.00;;;;;;5005761;28;20081;-73
2023/08/22 02:14:09;;;;;;;5.18;3.03;;;19.10;70.20;;;;;;5006037;28;20083;-73
2023/08/22 02:16:36;;;;;;;5.13;3.17;;;19.10;70.20;;;;;;4990016;28;20058;-73
2023/08/22 02:19:03;;;;;;;5.20;3.28;;;19.10;70.30;;;;;;4989411;28;20285;-73
2023/08/22 02:21:30;;;;;;;7.72;3.55;;;19.10;70.30;;;;;;5005776;28;20800;-72
2023/08/22 02:23:58;;;;;;;6.00;3.30;;;19.10;70.40;;;;;;5005677;28;20042;-73
2023/08/22 02:26:26;;;;;;;5.80;2.90;;;19.10;70.50;;;;;;5007147;28;20051;-73
2023/08/22 02:28:55;;;;;;;5.90;3.47;;;19.10;70.50;;;;;;5005637;28;20539;-73
2023/08/22 02:31:22;;;;;;;6.95;3.40;;;19.00;70.50;;;;;;5005343;28;20706;-73
2023/08/22 02:33:49;;;;;;;5.60;3.30;;;19.00;70.40;;;;;;5005851;28;20057;-72
2023/08/22 02:36:16;;;;;;;6.10;3.28;;;19.00;70.50;;;;;;5005370;28;20054;-73
2023/08/22 02:38:43;;;;;;;6.18;3.22;;;19.00;70.50;;;;;;5006316;28;20055;-73
2023/08/22 02:41:10;;;;;;;6.47;3.50;;;19.00;70.50;;;;;;5005573;28;20060;-73
2023/08/22 02:43:38;;;;;;;6.97;3.67;;;18.90;70.00;;;;;;5006208;28;20736;-73
2023/08/22 02:46:06;;;;;;;7.82;3.50;;;18.90;70.20;;;;;;5007593;28;20047;-73
2023/08/22 02:48:33;;;;;;;7.65;4.25;;;18.80;70.60;;;;;;5005970;28;20054;-73
2023/08/22 02:51:00;;;;;;;7.30;4.35;;;18.80;70.70;;;;;;4988822;28;20050;-73
2023/08/22 02:53:27;;;;;;;7.20;3.83;;;18.80;70.80;;;;;;4989687;28;20086;-73
2023/08/22 02:55:54;;;;;;;8.10;4.20;;;18.80;70.90;;;;;;5005618;28;20282;-72
2023/08/22 02:58:21;;;;;;;7.18;3.70;;;18.80;70.90;;;;;;4989055;28;20743;-73
2023/08/22 03:00:48;;;;;;;6.75;3.97;;;18.80;71.00;;;;;;5005282;28;20078;-73
2023/08/22 03:03:18;;;;;;;7.45;3.95;;;18.70;70.90;;;;;;4990585;28;20468;-73
2023/08/22 03:05:45;;;;;;;6.33;3.90;;;18.70;71.00;;;;;;4992590;28;20551;-73
2023/08/22 03:08:12;;;;;;;6.65;3.88;;;18.70;70.90;;;;;;5008666;28;20274;-73
2023/08/22 03:10:39;;;;;;;5.97;3.67;;;18.70;71.00;;;;;;4992801;28;20421;-73
2023/08/22 03:13:07;;;;;;;7.22;4.05;;;18.70;70.80;;;;;;5008689;28;20089;-73
2023/08/22 03:15:34;;;;;;;5.55;3.83;;;18.70;70.70;;;;;;4992212;28;20133;-72
2023/08/22 03:18:02;;;;;;;7.60;4.50;;;18.70;70.80;;;;;;5008674;28;20050;-73
2023/08/22 03:20:30;;;;;;;7.25;4.40;;;18.70;71.00;;;;;;4992255;28;20879;-73
2023/08/22 03:23:00;;;;;;;6.85;3.90;;;18.70;71.00;;;;;;4992371;28;20046;-73
2023/08/22 03:25:27;;;;;;;9.93;4.20;;;18.60;71.20;;;;;;4992521;28;20057;-73
2023/08/22 03:27:54;;;;;;;7.32;4.15;;;18.60;71.20;;;;;;4991995;28;20105;-73
2023/08/22 03:30:21;;;;;;;8.50;4.80;;;18.60;71.20;;;;;;4991986;28;20045;-73
2023/08/22 03:32:49;;;;;;;7.43;4.05;;;18.60;71.20;;;;;;4992148;28;21238;-73
2023/08/22 03:35:16;;;;;;;6.45;3.67;;;18.60;71.40;;;;;;4991626;28;20408;-73
2023/08/22 03:37:45;;;;;;;7.00;4.00;;;18.60;71.50;;;;;;5008580;28;20054;-73
2023/08/22 03:40:12;;;;;;;8.80;4.00;;;18.60;71.60;;;;;;5008639;28;20061;-72
2023/08/22 03:42:39;;;;;;;6.13;4.07;;;18.50;71.50;;;;;;4991842;28;20038;-72
2023/08/22 03:45:09;;;;;;;8.05;4.00;;;18.50;71.60;;;;;;4991737;28;20285;-73
2023/08/22 03:47:37;;;;;;;8.63;3.80;;;18.50;71.50;;;;;;5008083;28;20156;-73
2023/08/22 03:50:06;;;;;;;6.70;3.67;;;18.50;71.40;;;;;;5008467;28;20432;-73
2023/08/22 03:52:33;;;;;;;7.68;3.63;;;18.50;71.30;;;;;;4991350;28;20050;-72
2023/08/22 03:55:01;;;;;;;6.40;3.77;;;18.50;71.20;;;;;;5008273;28;20089;-73
2023/08/22 03:57:28;;;;;;;8.18;3.80;;;18.50;71.10;;;;;;5003859;28;20783;-73
2023/08/22 03:59:55;;;;;;;7.90;3.75;;;18.50;71.10;;;;;;4993701;28;20054;-73
2023/08/22 04:02:22;;;;;;;6.38;3.58;;;18.50;71.00;;;;;;5007253;28;20772;-73
2023/08/22 04:04:49;;;;;;;6.22;3.47;;;18.40;70.80;;;;;;4991447;28;20487;-73
2023/08/22 04:07:16;;;;;;;9.13;3.60;;;18.40;70.70;;;;;;4991161;28;20050;-72
2023/08/22 04:09:43;;;;;;;5.60;3.20;;;18.40;70.50;;;;;;5007320;28;20337;-72
2023/08/22 04:12:11;;;;;;;6.15;3.17;;;18.40;70.50;;;;;;4991269;28;20060;-72
2023/08/22 04:14:38;;;;;;;6.57;3.45;;;18.40;70.40;;;;;;4990666;28;20054;-73
2023/08/22 04:17:06;;;;;;;6.13;3.35;;;18.40;70.40;;;;;;5007597;28;20140;-72
2023/08/22 04:19:33;;;;;;;4.87;3.20;;;18.30;70.40;;;;;;5008220;28;20050;-72
2023/08/22 04:22:00;;;;;;;6.55;3.20;;;18.30;70.20;;;;;;5007589;28;20251;-72
2023/08/22 04:24:27;;;;;;;5.55;3.47;;;18.30;70.10;;;;;;5007862;28;20509;-73
2023/08/22 04:26:54;;;;;;;5.32;2.85;;;18.30;70.00;;;;;;5015122;28;20148;-73
2023/08/22 04:29:23;;;;;;;4.60;3.03;;;18.20;70.00;;;;;;5007325;28;20101;-73
2023/08/22 04:31:51;;;;;;;7.07;3.73;;;18.20;69.90;;;;;;4990761;28;20587;-72
2023/08/22 04:34:18;;;;;;;8.38;5.15;;;18.20;70.10;;;;;;4990727;28;20378;-72
2023/08/22 04:36:53;;;;;;;6.97;3.75;;;18.20;70.40;;;;;;5007126;28;20065;-73
2023/08/22 04:39:20;;;;;;;7.40;3.90;;;18.10;70.60;;;;;;4990833;28;20048;-72
2023/08/22 04:41:51;;;;;;;8.63;4.30;;;18.10;70.30;;;;;;4990776;28;20332;-73
2023/08/22 04:44:43;;;;;;;7.17;4.30;;;18.10;70.20;;;;;;4990754;28;20531;-72
2023/08/22 04:47:09;;;;;;;6.63;4.38;;;18.10;70.50;;;;;;5007302;28;20289;-72
2023/08/22 04:49:36;;;;;;;6.72;3.80;;;18.00;70.70;;;;;;4990903;28;20505;-73
2023/08/22 04:52:03;;;;;;;9.13;3.33;;;18.00;70.80;;;;;;5007254;28;20073;-72
2023/08/22 04:54:30;;;;;;;8.25;4.10;;;18.00;70.60;;;;;;4990909;28;20496;-73
2023/08/22 04:56:58;;;;;;;6.27;3.70;;;18.00;70.60;;;;;;4990872;28;20065;-73
2023/08/22 04:59:25;;;;;;;6.00;3.50;;;18.00;70.60;;;;;;4990389;28;20380;-72
2023/08/22 05:01:53;;;;;;;6.45;3.70;;;18.00;70.70;;;;;;5006804;28;20050;-72
2023/08/22 05:04:20;;;;;;;14.60;3.88;;;18.00;70.90;;;;;;4990938;28;20154;-72
2023/08/22 05:06:50;;;;;;;11.10;3.60;;;18.00;70.90;;;;;;5007616;28;20054;-72
2023/08/22 05:09:17;;;;;;;8.17;3.47;;;17.90;70.80;;;;;;4990987;28;20064;-72
2023/08/22 05:11:45;;;;;;;8.05;3.10;;;17.90;70.70;;;;;;4990861;28;20277;-72
2023/08/22 05:14:14;;;;;;;5.90;2.85;;;17.90;70.50;;;;;;4990866;28;20080;-72
2023/08/22 05:16:44;;;;;;;4.85;2.70;;;17.80;70.40;;;;;;4990884;28;20039;-72
2023/08/22 05:19:13;;;;;;;3.67;2.20;;;17.80;70.30;;;;;;5006913;28;20054;-73
2023/08/22 05:21:41;;;;;;;3.50;2.00;;;17.80;70.40;;;;;;4990712;28;20061;-72
2023/08/22 05:24:08;;;;;;;3.83;2.28;;;17.80;70.50;;;;;;4994205;28;20772;-73
2023/08/22 05:26:35;;;;;;;4.95;2.53;;;17.80;70.70;;;;;;4987173;28;20050;-73
2023/08/22 05:29:02;;;;;;;4.22;2.58;;;17.70;71.00;;;;;;4987250;28;20059;-72
2023/08/22 05:31:29;;;;;;;4.18;2.30;;;17.60;71.40;;;;;;4990433;28;20134;-72
2023/08/22 05:33:56;;;;;;;4.40;2.40;;;17.60;71.70;;;;;;4987600;28;20141;-72
2023/08/22 05:36:24;;;;;;;5.68;2.63;;;17.60;71.90;;;;;;4983511;28;20263;-72
2023/08/22 05:38:52;;;;;;;5.10;2.75;;;17.60;72.10;;;;;;4980287;28;20496;-72
2023/08/22 05:41:19;;;;;;;4.60;2.78;;;17.60;72.20;;;;;;5001042;28;20058;-72
2023/08/22 05:43:46;;;;;;;5.65;2.80;;;17.60;72.10;;;;;;4988706;28;20065;-72
2023/08/22 05:46:14;;;;;;;4.53;2.90;;;17.50;72.10;;;;;;4987110;28;20081;-72
2023/08/22 05:48:41;;;;;;;4.65;2.80;;;17.60;72.30;;;;;;5005658;28;20262;-72
2023/08/22 05:51:07;;;;;;;5.47;3.70;;;17.60;72.30;;;;;;4988335;28;20277;-72
2023/08/22 05:53:36;;;;;;;7.22;4.45;;;17.60;72.40;;;;;;4981965;28;20065;-72
2023/08/22 05:56:04;;;;;;;8.45;5.55;;;17.60;72.60;;;;;;5006561;28;20125;-72
2023/08/22 05:58:30;;;;;;;10.17;6.13;;;17.60;73.80;;;;;;4983700;28;20106;-72
2023/08/22 06:00:58;;;;;;;9.73;6.13;;;17.60;74.60;;;;;;4985128;28;20141;-73
2023/08/22 06:03:29;;;;;;;10.60;6.90;;;17.60;74.80;;;;;;5000240;28;20058;-74
2023/08/22 06:05:57;;;;;;;11.13;7.28;;;17.60;75.20;;;;;;4981144;28;20162;-73
2023/08/22 06:08:23;;;;;;;11.73;6.75;;;17.60;75.50;;;;;;4997729;28;20078;-73
2023/08/22 06:10:52;;;;;;;13.03;7.07;;;17.60;76.00;;;;;;4972153;28;20050;-72
2023/08/22 06:13:19;;;;;;;11.00;6.70;;;17.60;76.30;;;;;;5012781;28;20058;-72
2023/08/22 06:15:47;;;;;;;13.10;7.63;;;17.70;76.80;;;;;;5004427;28;20054;-73
2023/08/22 06:18:16;;;;;;;11.60;7.07;;;17.80;77.10;;;;;;4983029;28;20050;-73
2023/08/22 06:20:46;;;;;;;11.98;7.22;;;17.80;77.40;;;;;;5005048;28;20054;-73
2023/08/22 06:23:13;;;;;;;13.17;7.23;;;17.80;77.80;;;;;;5005860;28;20176;-73
2023/08/22 06:25:44;;;;;;;14.23;7.38;;;17.80;78.10;;;;;;4988245;28;20053;-73
2023/08/22 06:28:13;;;;;;;12.52;7.18;;;17.90;78.30;;;;;;5005682;28;20047;-73
2023/08/22 06:30:40;;;;;;;14.30;7.60;;;17.90;78.50;;;;;;5005546;28;20061;-72
2023/08/22 06:33:08;;;;;;;11.15;6.80;;;18.00;78.60;;;;;;5002269;28;20141;-73
2023/08/22 06:35:35;;;;;;;11.37;6.87;;;18.00;78.80;;;;;;5003937;28;20465;-73
2023/08/22 06:38:03;;;;;;;11.93;6.60;;;18.00;78.80;;;;;;4990057;28;20077;-74
2023/08/22 06:40:30;;;;;;;13.13;6.93;;;18.10;78.90;;;;;;5010302;28;20053;-73
2023/08/22 06:42:57;;;;;;;11.13;6.57;;;18.10;78.90;;;;;;4992624;28;20473;-73
2023/08/22 06:45:33;;;;;;;13.25;6.85;;;18.20;79.00;;;;;;4992586;28;20057;-73
2023/08/22 06:48:01;;;;;;;11.53;7.07;;;18.20;79.00;;;;;;4982149;28;20346;-73
2023/08/22 06:50:28;;;;;;;12.82;6.60;;;18.20;79.20;;;;;;4997754;28;20057;-73
2023/08/22 06:52:55;;;;;;;11.35;6.70;;;18.30;79.20;;;;;;5004828;28;20049;-74
2023/08/22 06:55:22;;;;;;;11.23;6.50;;;18.30;79.30;;;;;;5008445;28;20046;-73
2023/08/22 06:57:49;;;;;;;12.90;7.13;;;18.40;79.40;;;;;;5007172;28;20980;-73
2023/08/22 07:00:17;;;;;;;13.60;7.20;;;18.40;79.50;;;;;;5005435;28;20162;-73
2023/08/22 07:02:46;;;;;;;12.80;6.72;;;18.40;79.70;;;;;;5006462;28;20520;-73
2023/08/22 07:05:14;;;;;;;12.43;7.28;;;18.50;80.20;;;;;;4992138;28;20084;-73
2023/08/22 07:07:42;;;;;;;12.00;6.63;;;18.50;80.40;;;;;;5010373;28;20058;-73
2023/08/22 07:10:11;;;;;;;11.18;6.70;;;18.60;80.50;;;;;;4990799;28;20062;-73
2023/08/22 07:12:39;;;;;;;12.20;6.53;;;18.70;80.70;;;;;;5006415;28;20090;-73
2023/08/22 07:15:07;;;;;;;14.23;7.07;;;18.70;80.50;;;;;;5006005;28;20046;-73
2023/08/22 07:17:35;;;;;;;12.95;6.25;;;18.80;80.70;;;;;;5001874;28;20084;-73
2023/08/22 07:20:03;;;;;;;11.02;6.43;;;18.80;80.50;;;;;;5007097;28;20053;-73
2023/08/22 07:22:30;;;;;;;11.32;5.85;;;18.90;80.50;;;;;;5006937;28;20050;-73
2023/08/22 07:24:58;;;;;;;10.87;5.80;;;19.00;80.60;;;;;;5002288;28;20145;-73
2023/08/22 07:27:25;;;;;;;9.43;5.00;;;19.00;80.40;;;;;;5007336;28;20054;-73
2023/08/22 07:29:52;;;;;;;10.85;4.85;;;19.10;80.30;;;;;;5007820;28;20042;-74
2023/08/22 07:32:20;;;;;;;11.68;4.80;;;19.10;80.50;;;;;;5005410;28;20047;-74
2023/08/22 07:34:47;;;;;;;8.10;3.97;;;19.20;80.70;;;;;;5006338;28;20046;-74
2023/08/22 07:37:17;;;;;;;8.97;4.20;;;19.30;80.40;;;;;;5008203;28;20060;-74
2023/08/22 07:39:45;;;;;;;9.85;3.90;;;19.40;80.10;;;;;;5006871;28;20052;-74
2023/08/22 07:42:12;;;;;;;10.00;4.13;;;19.50;79.70;;;;;;5006954;28;20479;-73
2023/08/22 07:44:39;;;;;;;8.82;3.83;;;19.50;79.40;;;;;;5008988;28;20081;-74
2023/08/22 07:47:07;;;;;;;9.52;3.70;;;19.50;79.10;;;;;;5008960;28;20061;-74
2023/08/22 07:49:34;;;;;;;8.87;3.97;;;19.60;79.00;;;;;;5007872;28;20579;-74
2023/08/22 07:52:02;;;;;;;6.63;3.30;;;19.70;78.60;;;;;;5006390;28;20050;-74
2023/08/22 07:54:32;;;;;;;8.15;3.20;;;19.70;77.40;;;;;;5003216;28;20836;-74
2023/08/22 07:56:59;;;;;;;9.95;3.90;;;19.70;77.40;;;;;;4998732;28;20050;-74
2023/08/22 07:59:25;;;;;;;7.60;3.55;;;19.80;77.40;;;;;;5002096;28;20046;-74
2023/08/22 08:01:53;;;;;;;9.83;3.77;;;19.90;77.20;;;;;;5001392;28;20579;-74
2023/08/22 08:04:19;;;;;;;7.38;3.42;;;19.90;77.20;;;;;;4996156;28;20043;-74
2023/08/22 08:06:47;;;;;;;5.40;2.75;;;20.00;77.10;;;;;;5020047;28;20726;-74
2023/08/22 08:09:14;;;;;;;8.30;3.00;;;20.00;76.90;;;;;;4995917;28;20514;-74
2023/08/22 08:11:43;;;;;;;6.13;2.50;;;20.00;76.70;;;;;;4995360;28;20091;-76
2023/08/22 08:14:11;;;;;;;7.23;2.30;;;20.10;75.70;;;;;;4999467;28;20065;-74
2023/08/22 08:16:38;;;;;;;5.28;2.28;;;20.10;74.70;;;;;;4991859;28;20203;-74
2023/08/22 08:19:05;;;;;;;6.65;2.67;;;20.10;73.40;;;;;;5005901;28;20054;-73
2023/08/22 08:21:32;;;;;;;5.65;2.60;;;20.20;73.00;;;;;;5004730;28;20093;-74
2023/08/22 08:23:59;;;;;;;6.95;2.40;;;20.20;73.30;;;;;;5007273;28;20046;-74
2023/08/22 08:26:26;;;;;;;11.50;3.23;;;20.30;73.50;;;;;;5004379;28;20065;-74
2023/08/22 08:28:55;;;;;;;7.32;2.22;;;20.30;73.20;;;;;;5007667;28;20101;-74
2023/08/22 08:31:21;;;;;;;4.72;1.60;;;20.30;73.00;;;;;;5003132;28;20057;-74
2023/08/22 08:33:49;;;;;;;5.88;1.70;;;20.30;71.50;;;;;;4990199;28;20109;-74
2023/08/22 08:36:15;;;;;;;4.93;1.77;;;20.30;70.70;;;;;;5004006;28;20050;-74
2023/08/22 08:38:42;;;;;;;4.63;1.60;;;20.30;71.10;;;;;;5005615;28;20568;-74
2023/08/22 08:41:10;;;;;;;4.53;1.40;;;20.40;70.50;;;;;;5003497;28;20054;-74
2023/08/22 08:43:37;;;;;;;5.18;1.33;;;20.40;70.50;;;;;;5006551;28;20050;-73
2023/08/22 08:46:07;;;;;;;4.95;1.77;;;20.50;70.40;;;;;;5007060;28;20537;-73
2023/08/22 08:48:35;;;;;;;6.15;1.80;;;20.50;70.20;;;;;;5007746;28;20583;-73
2023/08/22 08:51:04;;;;;;;5.07;1.50;;;20.50;70.10;;;;;;5008864;28;20078;-73
2023/08/22 08:53:33;;;;;;;5.63;1.75;;;20.50;70.30;;;;;;5004697;28;20050;-73
2023/08/22 08:56:00;;;;;;;4.38;1.60;;;20.50;70.10;;;;;;4987226;28;20042;-73
2023/08/22 08:58:27;;;;;;;5.35;1.55;;;20.50;70.30;;;;;;5000251;28;20058;-73
2023/08/22 09:00:57;;;;;;;4.80;1.40;;;20.60;70.20;;;;;;5002710;28;20078;-74
2023/08/22 09:03:26;;;;;;;4.70;1.37;;;20.60;70.10;;;;;;4998210;28;20078;-73
2023/08/22 09:05:52;;;;;;;4.25;1.30;;;20.60;69.90;;;;;;4998427;28;20165;-74
2023/08/22 09:08:20;;;;;;;5.57;1.40;;;20.60;70.00;;;;;;4998131;28;20129;-73
2023/08/22 09:10:51;;;;;;;4.20;1.30;;;20.70;69.00;;;;;;5000712;28;20591;-74
2023/08/22 09:13:25;;;;;;;3.97;1.17;;;20.70;68.70;;;;;;4999445;28;20066;-73
2023/08/22 09:15:57;;;;;;;5.07;1.40;;;20.70;68.60;;;;;;5007946;28;20054;-73
2023/08/22 09:18:26;;;;;;;4.53;1.50;;;20.70;69.00;;;;;;5003240;28;20061;-75
2023/08/22 09:20:53;;;;;;;5.60;2.10;;;20.70;69.10;;;;;;4994017;28;20534;-74
2023/08/22 09:23:21;;;;;;;6.15;2.05;;;20.70;69.40;;;;;;5004023;28;20074;-73
2023/08/22 09:25:48;;;;;;;5.93;2.00;;;20.70;69.40;;;;;;5004521;28;20061;-73
2023/08/22 09:28:16;;;;;;;5.33;2.03;;;20.80;69.20;;;;;;4987758;28;20105;-72
2023/08/22 09:30:49;;;;;;;5.90;2.10;;;20.80;69.10;;;;;;5002377;28;20058;-72
2023/08/22 09:33:16;;;;;;;6.03;2.17;;;20.90;69.20;;;;;;5002700;28;20054;-73
2023/08/22 09:35:46;;;;;;;5.45;2.10;;;20.90;69.10;;;;;;5004955;28;20076;-72
2023/08/22 09:38:13;;;;;;;4.78;1.90;;;21.00;69.10;;;;;;5005968;28;20181;-73
2023/08/22 09:40:51;;;;;;;6.63;1.70;;;21.00;68.60;;;;;;5008033;28;20050;-73
2023/08/22 09:43:20;;;;;;;5.80;1.85;;;21.10;68.30;;;;;;4988215;28;20050;-72
2023/08/22 09:45:51;;;;;;;5.50;2.10;;;21.10;68.10;;;;;;4997988;28;20513;-73
2023/08/22 09:48:25;;;;;;;7.47;2.20;;;21.10;67.90;;;;;;5020518;28;20057;-72
2023/08/22 09:50:58;;;;;;;6.72;2.30;;;21.20;68.30;;;;;;4997269;28;20054;-72
2023/08/22 09:53:28;;;;;;;4.87;1.73;;;21.30;68.00;;;;;;4995569;28;20919;-72
2023/08/22 09:55:55;;;;;;;5.03;1.95;;;21.30;67.50;;;;;;5004120;28;20057;-72
2023/08/22 09:58:26;;;;;;;5.20;1.92;;;21.40;67.20;;;;;;4997448;28;20054;-72
2023/08/22 10:00:54;;;;;;;5.20;1.92;;;21.40;67.40;;;;;;5006423;28;20069;-73
2023/08/22 10:03:22;;;;;;;5.72;1.95;;;21.50;67.20;;;;;;4985175;28;20046;-72
2023/08/22 10:05:52;;;;;;;4.63;1.90;;;21.50;66.90;;;;;;4998840;28;20050;-74
2023/08/22 10:08:19;;;;;;;6.13;1.90;;;21.60;67.10;;;;;;5002122;28;20042;-73
2023/08/22 10:10:47;;;;;;;5.05;1.75;;;21.70;66.50;;;;;;4996806;28;20614;-73
2023/08/22 10:13:15;;;;;;;5.28;1.60;;;21.70;66.70;;;;;;4986181;28;20141;-72
2023/08/22 10:15:44;;;;;;;6.60;2.38;;;21.80;66.40;;;;;;5005325;28;20050;-73
2023/08/22 10:18:12;;;;;;;5.60;1.73;;;21.90;65.50;;;;;;4998900;28;20070;-73
2023/08/22 10:20:40;;;;;;;5.63;1.88;;;21.90;64.60;;;;;;4999214;28;20555;-73
2023/08/22 10:23:10;;;;;;;5.00;2.03;;;21.90;64.40;;;;;;5003013;28;20054;-73
2023/08/22 10:25:50;;;;;;;5.63;1.90;;;22.00;64.70;;;;;;4983735;28;20050;-73
2023/08/22 10:28:17;;;;;;;5.80;1.75;;;22.00;65.40;;;;;;4997034;28;20498;-73
2023/08/22 10:31:04;;;;;;;4.23;1.80;;;22.10;66.00;;;;;;5020933;28;20102;-74
2023/08/22 10:33:31;;;;;;;4.72;1.30;;;22.20;65.70;;;;;;4998457;28;20166;-73
2023/08/22 10:36:09;;;;;;;3.80;1.30;;;22.20;64.00;;;;;;5000374;28;20043;-73
2023/08/22 10:38:52;;;;;;;5.50;1.50;;;22.30;65.00;;;;;;4985026;28;20918;-73
2023/08/22 10:41:22;;;;;;;2.70;0.85;;;22.30;64.70;;;;;;5003035;28;20046;-73
2023/08/22 10:43:50;;;;;;;4.77;1.20;;;22.30;63.40;;;;;;5003122;28;20054;-73
2023/08/22 10:46:17;;;;;;;3.13;1.00;;;22.30;62.20;;;;;;4996461;28;20125;-73
2023/08/22 10:48:46;;;;;;;3.03;1.05;;;22.40;60.70;;;;;;4978527;28;20043;-73
2023/08/22 10:51:13;;;;;;;4.35;1.20;;;22.40;60.80;;;;;;5001485;28;20047;-73
2023/08/22 10:53:44;;;;;;;4.63;1.35;;;22.40;61.10;;;;;;4994491;28;20056;-76
2023/08/22 10:56:22;;;;;;;4.73;1.20;;;22.40;61.80;;;;;;4998904;28;20054;-74
2023/08/22 10:58:59;;;;;;;5.15;1.27;;;22.50;61.70;;;;;;5002623;28;20141;-72
2023/08/22 11:01:26;;;;;;;5.43;1.40;;;22.50;62.30;;;;;;4997180;28;20054;-73
2023/08/22 11:03:55;;;;;;;3.97;1.25;;;22.50;62.90;;;;;;5004024;28;20101;-73
2023/08/22 11:06:24;;;;;;;3.53;1.23;;;22.50;62.90;;;;;;5002545;28;20054;-73
2023/08/22 11:08:51;;;;;;;4.97;1.20;;;22.60;62.20;;;;;;5005813;28;20133;-73
2023/08/22 11:11:21;;;;;;;4.47;1.45;;;22.60;61.70;;;;;;4998417;28;20527;-76
2023/08/22 11:13:48;;;;;;;4.28;1.48;;;22.70;61.30;;;;;;5017089;28;20058;-76
2023/08/22 11:16:17;;;;;;;6.10;1.42;;;22.70;61.40;;;;;;4996905;28;20348;-76
2023/08/22 11:18:47;;;;;;;4.55;1.55;;;22.70;61.20;;;;;;4981610;28;20502;-75
2023/08/22 11:21:14;;;;;;;3.70;1.10;;;22.70;61.70;;;;;;5002754;28;20663;-75
2023/08/22 11:23:42;;;;;;;4.75;1.40;;;22.80;62.00;;;;;;5005311;28;20489;-75
2023/08/22 11:26:12;;;;;;;3.80;1.35;;;22.80;62.20;;;;;;5008646;28;20050;-75
2023/08/22 11:28:40;;;;;;;4.25;1.10;;;22.80;60.90;;;;;;5008449;28;20633;-76
2023/08/22 11:31:14;;;;;;;4.00;1.35;;;22.90;61.00;;;;;;5007976;28;20525;-76
2023/08/22 11:33:47;;;;;;;3.93;1.23;;;22.90;61.60;;;;;;5009870;28;20054;-76
2023/08/22 11:36:14;;;;;;;2.83;0.80;;;23.00;60.40;;;;;;5001404;28;20043;-76
2023/08/22 11:38:42;;;;;;;4.38;1.20;;;23.00;60.50;;;;;;5014867;28;20050;-76
2023/08/22 11:41:10;;;;;;;4.03;1.10;;;23.00;58.80;;;;;;5004179;28;20049;-77
2023/08/22 11:43:52;;;;;;;6.13;1.20;;;23.00;59.40;;;;;;5007572;28;20477;-76
2023/08/22 11:46:21;;;;;;;4.90;1.27;;;23.10;59.70;;;;;;4991223;28;20487;-76
2023/08/22 11:49:12;;;;;;;5.00;0.75;;;23.10;59.90;;;;;;5007102;28;20082;-77
2023/08/22 11:51:39;;;;;;;5.38;1.38;;;23.10;59.00;;;;;;5006597;28;20564;-77
2023/08/22 11:54:06;;;;;;;4.55;1.15;;;23.20;58.60;;;;;;4991112;28;20060;-77
2023/08/22 11:56:33;;;;;;;3.13;1.13;;;23.30;58.30;;;;;;5006703;28;20051;-75
2023/08/22 11:59:01;;;;;;;5.80;1.50;;;23.30;59.30;;;;;;5006830;28;20687;-76
2023/08/22 12:01:28;;;;;;;4.85;1.30;;;23.40;58.30;;;;;;5004885;28;20352;-76
2023/08/22 12:03:57;;;;;;;4.47;1.30;;;23.40;58.50;;;;;;5007909;28;20461;-75
2023/08/22 12:06:24;;;;;;;5.03;1.45;;;23.40;59.00;;;;;;5009026;28;20117;-75
2023/08/22 12:08:56;;;;;;;3.40;1.40;;;23.50;59.00;;;;;;4991134;28;20165;-75
2023/08/22 12:11:25;;;;;;;5.93;1.60;;;23.50;58.50;;;;;;5004223;28;20557;-76
2023/08/22 12:13:52;;;;;;;5.07;1.70;;;23.50;57.80;;;;;;5005551;28;20046;-76
2023/08/22 12:16:20;;;;;;;4.05;1.40;;;23.60;57.90;;;;;;5006245;28;20055;-76
2023/08/22 12:18:47;;;;;;;4.55;1.35;;;23.60;58.40;;;;;;5005138;28;20475;-76
2023/08/22 12:21:15;;;;;;;3.40;1.40;;;23.60;58.90;;;;;;5006780;28;20055;-75
2023/08/22 12:23:43;;;;;;;4.77;1.40;;;23.60;58.00;;;;;;5004549;28;20512;-75
2023/08/22 12:26:09;;;;;;;5.72;1.63;;;23.60;58.60;;;;;;5004104;28;20054;-75
2023/08/22 12:28:36;;;;;;;4.78;1.38;;;23.60;58.80;;;;;;5008569;28;20054;-75
2023/08/22 12:31:05;;;;;;;3.80;0.93;;;23.60;58.70;;;;;;5005780;28;20058;-75
2023/08/22 12:33:33;;;;;;;6.75;1.50;;;23.70;57.30;;;;;;5005239;28;20524;-75
2023/08/22 12:36:01;;;;;;;6.83;2.33;;;23.70;57.20;;;;;;5005787;28;20050;-75
2023/08/22 12:38:28;;;;;;;4.38;1.50;;;23.80;58.20;;;;;;5006466;28;20500;-75
2023/08/22 12:40:55;;;;;;;4.20;1.20;;;23.80;58.00;;;;;;5003235;28;20150;-76
2023/08/22 12:43:22;;;;;;;4.72;1.70;;;23.90;57.20;;;;;;5009015;28;20058;-76
2023/08/22 12:46:14;;;;;;;4.20;1.40;;;23.90;56.70;;;;;;5006533;28;20061;-75
2023/08/22 12:48:43;;;;;;;5.20;1.10;;;24.00;56.40;;;;;;5009005;28;20489;-74
2023/08/22 12:51:10;;;;;;;3.80;1.25;;;24.00;55.50;;;;;;5006947;28;20157;-74